Latest Weather Observations for Wilcannia Airport

IDN60801

Issued at 5:22 pm EST Friday 22 June 2018 (issued every 10 minutes, with the page automatically refreshed every 10 minutes)

About weather observations | Map of weather stations | Latest weather observations for NSW | Other Formats
Station Details ID: 046012 Name: WILCANNIA AERODROME AWS Lat: -31.52 Lon: 143.38 Height: 94.3 m
Data from the previous 72 hours. | See also: Recent months at Wilcannia Airport
Date/Time
EST
Temp
°C
App
Temp
°C
Dew
Point
°C
Rel
Hum
%
Delta-T
°C
Wind Press
QNH
hPa
Press
MSL
hPa
Rain since
9am
mm
Dir  Spd
km/h
Gust
km/h
Spd
kts
Gust
kts
22/05:00pm 18.4 16.1 0.1 29 8.0 S 2 9 1 5 1025.9 1026.0 0.0
22/04:30pm 19.5 16.8 0.0 27 8.6 WNW 4 9 2 5 1025.7 1025.8 0.0
22/04:00pm 19.0 15.9 0.1 28 8.3 SW 6 9 3 5 1025.7 1025.8 0.0
22/03:30pm 18.9 15.5 -0.5 27 8.4 E 7 11 4 6 1025.7 1025.8 0.0
22/03:00pm 19.5 16.4 0.0 27 8.6 NNW 6 11 3 6 1025.8 1025.9 0.0
22/02:30pm 19.0 15.8 0.6 29 8.2 E 7 13 4 7 1025.9 1026.0 0.0
22/02:00pm 19.1 15.9 0.7 29 8.2 E 7 13 4 7 1026.2 1026.3 0.0
22/01:30pm 18.8 15.8 0.9 30 8.0 NNW 6 9 3 5 1026.7 1026.8 0.0
22/01:00pm 18.1 14.5 0.3 30 7.8 NNE 9 13 5 7 1027.1 1027.2 0.0
22/12:30pm 17.7 14.2 1.2 33 7.4 NNE 9 13 5 7 1027.6 1027.7 0.0
22/12:00pm 16.9 13.4 1.0 34 7.0 NE 9 13 5 7 1028.0 1028.1 0.0
22/11:30am 15.5 12.5 2.0 40 6.0 E 7 11 4 6 1028.5 1028.6 0.0
22/11:00am 14.5 11.5 2.1 43 5.4 ENE 7 11 4 6 1028.9 1029.0 0.0
22/10:30am 12.9 9.5 1.9 47 4.8 E 9 13 5 7 1029.0 1029.1 0.0
22/10:00am 11.6 8.9 2.4 53 4.0 SE 6 7 3 4 1029.1 1029.2 0.0
22/09:30am 9.4 6.3 1.6 58 3.3 SSE 7 9 4 5 1029.0 1029.1 0.0
22/09:00am 7.2 4.2 0.6 63 2.6 SSW 6 7 3 4 1028.8 1028.9 0.0
22/08:30am 4.9 1.7 -0.3 69 2.0 SSW 6 7 3 4 1028.5 1028.6 0.0
22/08:00am 2.2 -1.8 -1.9 74 1.4 SW 9 11 5 6 1028.5 1028.6 0.0
22/07:30am 1.2 -2.8 -2.4 77 1.3 SW 9 11 5 6 1028.1 1028.2 0.0
22/07:00am 0.9 -3.1 -2.5 78 1.2 WSW 9 9 5 5 1027.9 1028.0 0.0
22/06:30am 1.0 -3.0 -2.6 77 1.3 SW 9 11 5 6 1027.6 1027.7 0.0
22/06:00am 1.2 -2.9 -2.9 74 1.5 WSW 9 11 5 6 1027.2 1027.3 0.0
22/05:30am 2.1 -2.3 -2.2 73 1.5 SW 11 13 6 7 1027.0 1027.1 0.0
22/05:00am 2.2 -2.2 -2.3 72 1.6 SW 11 13 6 7 1027.0 1027.1 0.0
22/04:30am 2.5 -1.9 -2.2 71 1.6 WSW 11 13 6 7 1027.0 1027.1 0.0
22/04:00am 3.0 -1.3 -1.5 72 1.6 SW 11 13 6 7 1026.9 1027.0 0.0
22/03:30am 3.3 -1.4 -1.6 70 1.8 SW 13 15 7 8 1027.1 1027.2 0.0
22/03:00am 3.3 -1.4 -1.6 70 1.7 SW 13 13 7 7 1027.1 1027.2 0.0
22/02:30am 3.7 -0.6 -1.6 68 1.9 SW 11 13 6 7 1027.3 1027.4 0.0
22/02:00am 4.3 0.5 -0.9 69 1.9 SSW 9 9 5 5 1027.4 1027.5 0.0
22/01:30am 4.2 0.0 -1.2 68 2.0 SW 11 11 6 6 1027.5 1027.6 0.0
22/01:00am 5.0 0.8 -0.8 66 2.2 SW 11 13 6 7 1027.7 1027.8 0.0
22/12:30am 5.4 0.8 -0.8 64 2.3 SW 13 15 7 8 1027.9 1028.0 0.0
22/12:00am 5.9 1.4 -0.6 63 2.5 SW 13 15 7 8 1028.0 1028.1 0.0
 
Date/Time
EST
Temp
°C
App
Temp
°C
Dew
Point
°C
Rel
Hum
%
Delta-T
°C
Wind Press
QNH
hPa
Press
MSL
hPa
Rain since
9am
mm
Dir  Spd
km/h
Gust
km/h
Spd
kts
Gust
kts
21/11:30pm 6.1 1.9 -0.8 61 2.6 SW 11 13 6 7 1028.0 1028.1 0.0
21/11:00pm 7.6 3.5 -0.1 58 3.0 SW 11 13 6 7 1028.0 1028.1 0.0
21/10:30pm 9.1 5.1 0.8 56 3.4 S 11 13 6 7 1027.7 1027.8 0.0
21/10:00pm 10.3 6.0 1.2 53 3.8 S 13 15 7 8 1027.6 1027.7 0.0
21/09:30pm 11.7 7.1 1.6 50 4.3 S 15 19 8 10 1027.7 1027.8 0.0
21/09:00pm 12.7 7.8 1.7 47 4.7 S 17 20 9 11 1027.7 1027.8 0.0
21/08:30pm 13.1 8.3 2.6 49 4.6 S 17 20 9 11 1027.8 1027.9 0.0
21/08:00pm 11.0 6.6 2.6 56 3.6 S 15 15 8 8 1027.6 1027.7 0.0
21/07:30pm 11.0 7.0 2.6 56 3.6 SSE 13 15 7 8 1027.4 1027.5 0.0
21/07:00pm 10.4 6.4 0.4 50 4.1 SSE 11 11 6 6 1027.1 1027.2 0.0
21/06:30pm 11.8 8.0 2.0 51 4.2 SSE 11 11 6 6 1026.8 1026.9 0.0
21/06:00pm 13.3 9.9 1.9 46 4.9 SSE 9 11 5 6 1026.3 1026.4 0.0
21/05:30pm 15.7 12.2 1.1 37 6.4 SE 9 9 5 5 1026.1 1026.2 0.0
21/05:00pm 17.9 14.6 2.6 36 7.0 ESE 9 13 5 7 1025.9 1026.0 0.0
21/04:30pm 18.7 15.0 2.5 34 7.5 ESE 11 15 6 8 1025.8 1025.9 0.0
21/04:00pm 18.7 15.4 2.5 34 7.4 SE 9 11 5 6 1025.8 1025.9 0.0
21/03:30pm 19.1 15.8 2.5 33 7.7 E 9 13 5 7 1025.8 1025.9 0.0
21/03:00pm 19.2 16.4 3.0 34 7.5 E 7 19 4 10 1025.8 1025.9 0.0
21/02:30pm 19.1 15.0 2.5 33 7.7 E 13 19 7 10 1026.0 1026.1 0.0
21/02:00pm 19.2 16.4 3.0 34 7.5 SE 7 17 4 9 1026.1 1026.2 0.0
21/01:30pm 18.9 15.7 3.1 35 7.4 ESE 9 19 5 10 1026.5 1026.6 0.0
21/01:00pm 18.4 15.1 2.7 35 7.2 SE 9 20 5 11 1027.0 1027.1 0.0
21/12:30pm 18.0 14.7 2.7 36 7.1 ESE 9 17 5 9 1027.4 1027.5 0.0
21/12:00pm 17.4 13.9 3.3 39 6.5 ESE 11 19 6 10 1028.0 1028.1 0.0
21/11:30am 16.5 12.6 3.6 42 6.0 ESE 13 17 7 9 1028.6 1028.7 0.0
21/11:00am 15.8 12.1 4.2 46 5.4 ESE 13 19 7 10 1028.9 1029.0 0.0
21/10:30am 14.4 10.1 3.5 48 5.0 ESE 15 20 8 11 1028.9 1029.0 0.0
21/10:00am 12.9 8.7 3.6 53 4.2 ESE 15 20 8 11 1029.0 1029.1 0.0
21/09:30am 11.3 6.6 3.3 58 3.5 ESE 17 24 9 13 1028.9 1029.0 0.0
21/09:00am 9.4 4.6 2.5 62 2.9 ESE 17 20 9 11 1028.7 1028.8 0.0
21/08:30am 7.3 4.3 2.0 69 2.2 E 7 11 4 6 1028.6 1028.7 0.0
21/08:00am 3.3 0.2 0.0 79 1.2 SE 6 9 3 5 1028.5 1028.6 0.0
21/07:30am 1.4 -2.1 -1.7 80 1.1 S 7 11 4 6 1028.2 1028.3 0.0
21/07:00am 1.6 -2.7 -1.5 80 1.1 SSW 11 13 6 7 1028.0 1028.1 0.0
21/06:30am 2.0 -2.2 -1.2 79 1.1 SSW 11 13 6 7 1027.8 1027.9 0.0
21/06:00am 2.2 -2.1 -1.4 77 1.3 SSW 11 13 6 7 1027.5 1027.6 0.0
21/05:30am 2.7 -1.9 -1.3 75 1.4 SSW 13 15 7 8 1027.1 1027.2 0.0
21/05:00am 3.1 -1.5 -0.9 75 1.4 SW 13 15 7 8 1027.0 1027.1 0.0
21/04:30am 3.3 -0.9 -0.9 74 1.5 SSW 11 13 6 7 1026.8 1026.9 0.0
21/04:00am 3.7 -0.9 -0.7 73 1.6 SSW 13 15 7 8 1026.9 1027.0 0.0
21/03:30am 3.9 -0.2 -0.5 73 1.6 SSW 11 13 6 7 1026.8 1026.9 0.0
21/03:00am 4.7 0.2 -0.3 70 1.9 SW 13 15 7 8 1026.9 1027.0 0.0
21/02:30am 5.6 0.9 0.8 71 1.9 WSW 15 17 8 9 1026.8 1026.9 0.0
21/02:00am 4.5 1.1 -0.3 71 1.8 SSW 7 9 4 5 1026.7 1026.8 0.0
21/01:30am 4.9 1.5 -0.7 67 2.1 S 7 9 4 5 1026.6 1026.7 0.0
21/01:00am 6.7 3.1 0.8 66 2.3 SSE 9 11 5 6 1026.4 1026.5 0.0
21/12:30am 7.3 3.7 0.3 61 2.8 SE 9 13 5 7 1026.5 1026.6 0.0
21/12:00am 8.7 5.2 1.1 59 3.1 SE 9 11 5 6 1026.6 1026.7 0.0
 
Date/Time
EST
Temp
°C
App
Temp
°C
Dew
Point
°C
Rel
Hum
%
Delta-T
°C
Wind Press
QNH
hPa
Press
MSL
hPa
Rain since
9am
mm
Dir  Spd
km/h
Gust
km/h
Spd
kts
Gust
kts
20/11:30pm 9.4 5.6 1.6 58 3.3 SE 11 13 6 7 1026.8 1026.9 0.0
20/11:00pm 9.9 5.4 2.3 59 3.2 SE 15 19 8 10 1026.8 1026.9 0.0
20/10:30pm 9.1 5.0 2.2 62 2.9 SE 13 15 7 8 1027.0 1027.1 0.0
20/10:00pm 8.5 5.0 1.2 60 3.0 SSE 9 11 5 6 1027.0 1027.1 0.0
20/09:30pm 9.6 5.7 1.0 55 3.5 S 11 13 6 7 1026.9 1027.0 0.0
20/09:00pm 9.2 5.5 0.1 53 3.6 SW 9 11 5 6 1026.9 1027.0 0.0
20/08:30pm 9.5 6.2 0.1 52 3.8 SW 7 9 4 5 1026.9 1027.0 0.0
20/08:00pm 9.5 7.5 -0.1 51 3.8 CALM 0 0 0 0 1026.6 1026.7 0.0
20/07:30pm 10.2 7.0 0.5 51 4.0 SE 7 11 4 6 1026.3 1026.4 0.0
20/07:00pm 10.6 7.4 0.6 50 4.1 E 7 9 4 5 1026.2 1026.3 0.0
20/06:30pm 11.5 7.9 0.9 48 4.4 ESE 9 9 5 5 1026.0 1026.1 0.0
20/06:00pm 12.2 8.2 0.6 45 4.8 ESE 11 11 6 6 1025.8 1025.9 0.0
20/05:30pm 13.6 10.4 0.9 42 5.4 E 7 9 4 5 1025.8 1025.9 0.0
20/05:00pm 15.2 12.1 1.4 39 6.0 E 7 11 4 6 1025.7 1025.8 0.0
20/04:30pm 15.6 12.5 1.4 38 6.2 ENE 7 9 4 5 1025.8 1025.9 0.0
20/04:00pm 15.9 13.0 1.2 37 6.4 NNE 6 7 3 4 1026.1 1026.2 0.0
20/03:30pm 16.0 12.8 1.0 36 6.6 ENE 7 9 4 5 1026.1 1026.2 0.0
20/03:00pm 16.2 13.6 1.1 36 6.6 N 4 9 2 5 1026.3 1026.4 0.0
20/02:30pm 16.5 13.5 1.0 35 6.8 ENE 6 11 3 6 1026.4 1026.5 0.0
20/02:00pm 16.8 13.8 1.7 36 6.7 W 7 11 4 6 1026.2 1026.3 0.0
20/01:30pm 16.7 13.6 1.2 35 6.9 NNW 7 13 4 7 1026.7 1026.8 0.0
20/01:00pm 16.7 13.8 1.6 36 6.7 N 6 13 3 7 1026.9 1027.0 0.0
20/12:30pm 15.4 11.9 1.5 39 6.1 NNW 9 13 5 7 1027.3 1027.4 0.0
20/12:00pm 14.3 11.4 1.6 42 5.5 N 6 13 3 7 1027.6 1027.7 0.0
20/11:30am 12.4 9.4 1.1 46 4.8 NNW 6 11 3 6 1028.1 1028.2 0.0
20/11:00am 11.5 9.7 1.2 49 4.3 CALM 0 0 0 0 1028.1 1028.2 0.0
20/10:30am 10.6 8.8 1.2 52 3.9 CALM 0 0 0 0 1028.3 1028.4 0.0
20/10:00am 9.6 6.6 1.0 55 3.5 SE 6 7 3 4 1028.1 1028.2 0.0
20/09:30am 7.9 4.8 0.4 59 3.0 SSW 6 7 3 4 1028.2 1028.3 0.0
20/09:00am 6.6 3.2 -0.4 61 2.7 SSW 7 9 4 5 1028.1 1028.2 0.0
20/08:30am 5.9 2.7 -0.6 63 2.5 S 6 9 3 5 1027.9 1028.0 0.0
20/08:00am 5.2 1.4 -1.0 64 2.3 S 9 9 5 5 1027.8 1027.9 0.0
20/07:30am 5.1 1.2 -1.3 63 2.4 SW 9 9 5 5 1027.5 1027.6 0.0
20/07:00am 5.3 1.4 -1.4 62 2.5 W 9 11 5 6 1027.2 1027.3 0.0
20/06:30am 5.8 2.9 -0.9 62 2.5 SW 4 9 2 5 1026.2 1026.3 0.0
20/06:00am 6.7 3.3 -0.3 61 2.7 ENE 7 9 4 5 1025.9 1026.0 0.0
20/05:30am 7.0 3.7 -0.2 60 2.8 ENE 7 11 4 6 1025.3 1025.3 0.0
20/05:00am 7.4 3.0 0.4 61 2.8 ENE 13 15 7 8 1025.1 1025.1 0.0
20/04:30am 4.7 0.7 -1.9 62 2.4 ENE 9 11 5 6 1025.0 1025.0 0.0
20/04:00am 4.9 2.7 -1.3 64 2.3 CALM 0 2 0 1 1025.4 1025.5 0.0
20/03:30am 4.3 2.1 -1.9 64 2.2 CALM 0 0 0 0 1025.5 1025.6 0.0
20/03:00am 4.4 2.1 -2.2 62 2.4 CALM 0 0 0 0 1025.7 1025.8 0.0
20/02:30am 4.8 1.4 -2.1 61 2.5 WSW 6 7 3 4 1026.0 1026.1 0.0
20/02:00am 5.7 2.2 -1.4 60 2.6 W 7 11 4 6 1026.3 1026.4 0.0
20/01:30am 6.3 2.5 -1.1 59 2.8 SE 9 11 5 6 1026.1 1026.2 0.0
20/01:00am 6.3 3.4 -0.9 60 2.7 SW 4 7 2 4 1026.5 1026.6 0.0
20/12:30am 6.9 3.1 -1.0 57 3.0 ESE 9 11 5 6 1026.6 1026.7 0.0
20/12:00am 8.2 3.7 -0.3 55 3.3 SE 13 15 7 8 1026.7 1026.8 0.0
 
Date/Time
EST
Temp
°C
App
Temp
°C
Dew
Point
°C
Rel
Hum
%
Delta-T
°C
Wind Press
QNH
hPa
Press
MSL
hPa
Rain since
9am
mm
Dir  Spd
km/h
Gust
km/h
Spd
kts
Gust
kts
19/11:30pm 6.9 3.6 -1.3 56 3.1 SW 6 9 3 5 1026.9 1027.0 0.0
19/11:00pm 6.6 2.3 -1.3 57 3.0 SSE 11 15 6 8 1027.1 1027.2 0.0
19/10:30pm 7.3 3.5 -0.9 56 3.1 WSW 9 11 5 6 1027.4 1027.5 0.0
19/10:00pm 7.7 3.5 -0.8 55 3.3 WSW 11 11 6 6 1027.4 1027.5 0.0
19/09:30pm 7.8 4.0 -0.9 54 3.4 SSW 9 11 5 6 1027.2 1027.3 0.0
19/09:00pm 8.2 4.1 0.0 56 3.2 SSW 11 11 6 6 1027.1 1027.2 0.0
19/08:30pm 7.7 3.7 -2.3 49 3.7 S 9 9 5 5 1027.0 1027.1 0.0
19/08:00pm 8.7 4.9 -0.9 51 3.7 SSW 9 11 5 6 1027.4 1027.5 0.0
19/07:30pm 9.1 5.3 -1.0 49 3.9 SSW 9 11 5 6 1027.3 1027.4 0.0
19/07:00pm 9.8 6.0 -1.0 47 4.2 SW 9 11 5 6 1027.3 1027.4 0.0
19/06:30pm 10.1 6.2 -1.3 45 4.5 SW 9 11 5 6 1026.8 1026.9 0.0
19/06:00pm 11.1 7.6 -1.3 42 4.9 SSW 7 9 4 5 1026.3 1026.4 0.0
19/05:30pm 12.4 8.6 -1.1 39 5.4 SSW 9 13 5 7 1026.2 1026.3 0.0

Other Formats:

Comma delimited format used in spreadsheet applications
http://www.bom.gov.au/fwo/IDN60801/IDN60801.95695.axf

JavaScript Object Notation format (JSON) in row-major order
http://www.bom.gov.au/fwo/IDN60801/IDN60801.95695.json